Time;durP1;ratioP1;P1;durP2;ratioP2;P2;SDS_P1;SDS_P2;PMS_P1;PMS_P2;Temp;Humidity;BMP_temperature;BMP_pressure;BME280_temperature;BME280_humidity;BME280_pressure;Samples;Min_cycle;Max_cycle;Signal;HPM_P1;HPM_P2
2022/02/14 00:02:12;;;;;;;20.83;7.38;;;7.60;99.90;;;;;;5032567;28;20030;-55
2022/02/14 00:04:37;;;;;;;19.50;6.85;;;7.60;99.90;;;;;;5032570;28;20510;-57
2022/02/14 00:07:03;;;;;;;13.50;6.03;;;7.60;99.90;;;;;;5031887;28;20049;-55
2022/02/14 00:09:28;;;;;;;18.17;6.35;;;7.60;99.90;;;;;;5032225;28;20471;-55
2022/02/14 00:11:54;;;;;;;20.95;6.97;;;7.60;99.90;;;;;;5032334;28;20495;-53
2022/02/14 00:14:24;;;;;;;15.88;6.45;;;7.50;99.90;;;;;;5032244;28;20076;-53
2022/02/14 00:16:49;;;;;;;17.30;5.45;;;7.60;99.90;;;;;;5031823;28;20044;-54
2022/02/14 00:19:15;;;;;;;28.17;6.68;;;7.60;99.90;;;;;;5032637;28;20029;-54
2022/02/14 00:21:41;;;;;;;19.50;6.60;;;7.60;99.90;;;;;;5031692;28;20030;-55
2022/02/14 00:24:07;;;;;;;20.60;5.93;;;7.60;99.90;;;;;;5014950;28;20029;-57
2022/02/14 00:26:34;;;;;;;19.98;6.63;;;7.60;99.90;;;;;;5013856;28;20044;-56
2022/02/14 00:28:59;;;;;;;14.35;6.03;;;7.60;99.90;;;;;;5032145;28;20033;-57
2022/02/14 00:31:25;;;;;;;18.20;6.55;;;7.60;99.90;;;;;;5015135;28;20406;-57
2022/02/14 00:33:50;;;;;;;13.50;6.68;;;7.50;99.90;;;;;;5032421;28;20061;-56
2022/02/14 00:36:16;;;;;;;18.70;6.57;;;7.50;99.90;;;;;;5033417;28;20056;-57
2022/02/14 00:38:41;;;;;;;29.13;7.95;;;7.50;99.90;;;;;;5031907;28;20060;-56
2022/02/14 00:41:08;;;;;;;15.75;6.25;;;7.50;99.90;;;;;;5014232;28;20566;-58
2022/02/14 00:43:34;;;;;;;33.72;7.20;;;7.50;99.90;;;;;;5032192;28;20305;-59
2022/02/14 00:45:59;;;;;;;17.90;6.70;;;7.50;99.90;;;;;;5031498;28;20085;-55
2022/02/14 00:48:25;;;;;;;13.73;6.45;;;7.60;99.90;;;;;;5031848;28;20040;-56
2022/02/14 00:50:51;;;;;;;22.88;7.35;;;7.60;99.90;;;;;;5031782;28;20030;-56
2022/02/14 00:53:17;;;;;;;14.07;6.18;;;7.60;99.90;;;;;;5032293;28;20518;-58
2022/02/14 00:55:42;;;;;;;16.35;5.55;;;7.60;99.90;;;;;;5031329;28;20091;-58
2022/02/14 00:58:09;;;;;;;16.38;5.88;;;7.70;99.90;;;;;;5032055;28;20411;-56
2022/02/14 01:00:35;;;;;;;18.25;5.78;;;7.70;99.90;;;;;;5030951;28;20041;-57
2022/02/14 01:03:02;;;;;;;18.38;6.22;;;7.70;99.90;;;;;;5031468;28;20063;-54
2022/02/14 01:05:28;;;;;;;12.40;5.60;;;7.70;99.90;;;;;;5031466;28;20021;-57
2022/02/14 01:07:53;;;;;;;17.95;6.25;;;7.60;99.90;;;;;;5032049;28;20362;-57
2022/02/14 01:10:19;;;;;;;17.38;6.32;;;7.70;99.90;;;;;;5014270;28;20052;-57
2022/02/14 01:12:45;;;;;;;11.43;5.95;;;7.70;99.90;;;;;;5032129;28;20037;-57
2022/02/14 01:15:11;;;;;;;16.48;6.13;;;7.70;99.90;;;;;;5013401;28;20045;-54
2022/02/14 01:17:38;;;;;;;11.98;5.75;;;7.70;99.90;;;;;;5031511;28;20060;-56
2022/02/14 01:20:07;;;;;;;13.85;5.93;;;7.70;99.90;;;;;;5031782;28;20548;-54
2022/02/14 01:22:33;;;;;;;14.20;6.05;;;7.60;99.90;;;;;;5032520;28;20034;-54
2022/02/14 01:24:59;;;;;;;22.33;6.28;;;7.70;99.90;;;;;;5014059;28;20021;-59
2022/02/14 01:27:25;;;;;;;14.90;5.75;;;7.60;99.90;;;;;;5033118;28;20075;-57
2022/02/14 01:29:51;;;;;;;15.73;6.28;;;7.60;99.90;;;;;;5039730;28;20052;-55
2022/02/14 01:32:22;;;;;;;19.90;6.07;;;7.60;99.90;;;;;;5069262;22;20030;-53
2022/02/14 01:34:52;;;;;;;16.17;5.30;;;7.60;99.90;;;;;;5085598;28;20090;-55
2022/02/14 01:37:18;;;;;;;13.45;4.90;;;7.70;99.90;;;;;;5083833;28;20362;-57
2022/02/14 01:39:44;;;;;;;12.93;4.90;;;7.80;99.90;;;;;;5090279;28;20388;-58
2022/02/14 01:42:11;;;;;;;12.45;5.15;;;7.90;99.90;;;;;;5090467;28;20028;-56
2022/02/14 01:44:45;;;;;;;15.10;5.75;;;7.90;99.90;;;;;;5070913;28;20035;-60
2022/02/14 01:47:13;;;;;;;19.70;6.15;;;7.90;99.90;;;;;;5070018;28;20032;-58
2022/02/14 01:49:41;;;;;;;10.82;5.32;;;7.90;99.90;;;;;;5070830;28;20027;-59
2022/02/14 01:52:07;;;;;;;11.60;5.20;;;7.80;99.90;;;;;;5070216;28;20028;-60
2022/02/14 01:54:38;;;;;;;12.82;6.28;;;7.70;99.90;;;;;;5070715;28;20434;-58
2022/02/14 01:57:04;;;;;;;14.10;5.68;;;7.80;99.90;;;;;;5070175;28;20038;-59
2022/02/14 01:59:30;;;;;;;14.57;4.82;;;7.80;99.90;;;;;;5070936;28;20025;-57
2022/02/14 02:01:56;;;;;;;11.70;5.55;;;7.90;99.90;;;;;;5070415;28;20548;-58
2022/02/14 02:04:22;;;;;;;15.45;5.43;;;7.90;99.90;;;;;;5070984;28;20052;-57
2022/02/14 02:06:47;;;;;;;17.80;5.65;;;7.90;99.90;;;;;;5069574;28;20139;-58
2022/02/14 02:09:13;;;;;;;18.90;5.53;;;7.90;99.90;;;;;;5070899;28;20017;-58
2022/02/14 02:14:24;;;;;;;15.35;5.60;;;7.90;99.90;;;;;;5070585;28;20726;-59
2022/02/14 02:16:50;;;;;;;10.48;4.65;;;7.90;99.90;;;;;;5070167;28;20105;-57
2022/02/14 02:19:17;;;;;;;17.50;4.43;;;7.90;99.90;;;;;;5070965;28;20516;-58
2022/02/14 02:21:46;;;;;;;14.05;4.85;;;8.00;99.90;;;;;;5072304;28;20036;-56
2022/02/14 02:24:19;;;;;;;18.48;5.80;;;8.00;99.90;;;;;;5077047;28;20099;-53
2022/02/14 02:26:45;;;;;;;;;;;7.90;99.90;;;;;;5069536;28;20035;-55
2022/02/14 02:29:11;;;;;;;16.23;5.57;;;8.00;99.90;;;;;;5052664;28;19904;-58
2022/02/14 02:31:37;;;;;;;15.75;5.65;;;7.90;99.90;;;;;;5056086;28;20111;-55
2022/02/14 02:34:06;;;;;;;21.40;5.40;;;7.90;99.90;;;;;;5073523;28;20438;-59
2022/02/14 02:36:32;;;;;;;10.68;4.65;;;7.90;99.90;;;;;;5073373;28;20116;-56
2022/02/14 02:38:58;;;;;;;16.00;4.95;;;7.80;99.90;;;;;;5073759;28;20040;-52
2022/02/14 02:41:24;;;;;;;14.70;5.35;;;7.70;99.90;;;;;;5073833;28;20035;-56
2022/02/14 02:43:49;;;;;;;11.88;4.63;;;7.70;99.90;;;;;;5073626;28;20074;-57
2022/02/14 02:46:15;;;;;;;15.70;5.07;;;7.60;99.90;;;;;;5073524;28;20580;-59
2022/02/14 02:48:40;;;;;;;13.57;5.35;;;7.80;99.90;;;;;;5073655;28;20032;-57
2022/02/14 02:51:06;;;;;;;16.65;5.53;;;7.80;99.90;;;;;;5073712;28;20063;-55
2022/02/14 02:53:32;;;;;;;14.85;5.75;;;7.90;99.90;;;;;;5072367;28;20239;-55
2022/02/14 02:55:59;;;;;;;15.15;5.18;;;7.90;99.90;;;;;;5073058;28;20393;-56
2022/02/14 02:58:24;;;;;;;18.52;5.57;;;7.80;99.90;;;;;;5073485;28;20441;-52
2022/02/14 03:00:50;;;;;;;12.63;4.65;;;7.90;99.90;;;;;;5072152;28;20075;-57
2022/02/14 03:03:16;;;;;;;13.18;5.15;;;7.90;99.90;;;;;;5073351;28;20035;-57
2022/02/14 03:05:41;;;;;;;13.68;5.28;;;7.80;99.90;;;;;;5066288;28;20401;-58
2022/02/14 03:08:07;;;;;;;15.48;4.55;;;7.80;99.90;;;;;;5073271;28;20027;-57
2022/02/14 03:10:33;;;;;;;15.43;4.80;;;7.80;99.90;;;;;;5072600;28;20033;-55
2022/02/14 03:12:58;;;;;;;10.60;5.00;;;7.80;99.90;;;;;;5072799;28;20330;-56
2022/02/14 03:15:24;;;;;;;14.48;5.13;;;7.90;99.90;;;;;;5072244;28;20154;-57
2022/02/14 03:17:50;;;;;;;12.20;5.80;;;7.90;99.90;;;;;;5073118;28;20040;-56
2022/02/14 03:20:17;;;;;;;10.40;4.20;;;7.80;99.90;;;;;;5072555;28;20032;-55
2022/02/14 03:22:42;;;;;;;11.88;4.75;;;7.80;99.90;;;;;;5073292;28;20032;-53
2022/02/14 03:25:08;;;;;;;11.30;4.60;;;7.80;99.90;;;;;;5072965;28;20084;-58
2022/02/14 03:27:34;;;;;;;12.45;5.32;;;7.80;99.90;;;;;;5055204;28;20483;-59
2022/02/14 03:30:00;;;;;;;15.88;4.35;;;7.80;99.90;;;;;;5055033;28;20223;-57
2022/02/14 03:32:25;;;;;;;20.75;5.43;;;8.00;99.90;;;;;;5072711;28;20020;-55
2022/02/14 03:34:51;;;;;;;18.33;5.60;;;8.00;99.90;;;;;;5071990;28;20123;-57
2022/02/14 03:37:16;;;;;;;13.20;4.13;;;8.10;99.90;;;;;;5073046;28;20032;-55
2022/02/14 03:39:42;;;;;;;14.07;4.95;;;8.00;99.90;;;;;;5072191;28;20029;-57
2022/02/14 03:42:08;;;;;;;20.83;4.95;;;8.20;99.90;;;;;;5071987;28;20115;-59
2022/02/14 03:44:34;;;;;;;10.32;4.00;;;8.30;99.90;;;;;;5072376;28;20132;-54
2022/02/14 03:46:59;;;;;;;13.07;4.72;;;8.30;99.90;;;;;;5072311;28;20060;-54
2022/02/14 03:49:25;;;;;;;13.45;4.57;;;8.30;99.90;;;;;;5072257;28;20103;-56
2022/02/14 03:51:50;;;;;;;12.50;4.28;;;8.20;99.90;;;;;;5054647;28;20054;-56
2022/02/14 03:54:16;;;;;;;18.75;5.43;;;8.30;99.90;;;;;;5071907;28;20033;-54
2022/02/14 03:56:42;;;;;;;9.90;4.15;;;8.30;99.90;;;;;;5072271;28;20035;-54
2022/02/14 03:59:07;;;;;;;11.98;4.38;;;8.20;99.90;;;;;;5071838;28;20082;-54
2022/02/14 04:01:33;;;;;;;11.82;4.32;;;8.20;99.90;;;;;;5072369;28;20398;-55
2022/02/14 04:03:59;;;;;;;13.13;4.93;;;8.20;99.90;;;;;;5071344;28;20427;-57
2022/02/14 04:06:24;;;;;;;11.55;4.15;;;8.20;99.90;;;;;;5071877;28;20028;-52
2022/02/14 04:08:50;;;;;;;11.32;3.72;;;8.30;99.90;;;;;;5071158;28;20040;-54
2022/02/14 04:11:16;;;;;;;12.60;4.63;;;8.30;99.90;;;;;;5071809;28;20501;-53
2022/02/14 04:13:41;;;;;;;9.88;3.80;;;8.30;99.90;;;;;;5071394;28;20418;-56
2022/02/14 04:16:07;;;;;;;14.63;4.68;;;8.30;99.90;;;;;;5053871;28;20020;-57
2022/02/14 04:18:32;;;;;;;12.45;4.25;;;8.30;99.90;;;;;;5072066;28;20068;-53
2022/02/14 04:20:58;;;;;;;20.65;5.22;;;8.40;99.90;;;;;;5072027;28;20073;-53
2022/02/14 04:23:24;;;;;;;15.48;4.60;;;8.30;99.90;;;;;;5071796;28;20108;-53
2022/02/14 04:25:49;;;;;;;15.27;4.60;;;8.40;99.90;;;;;;5053520;28;20037;-59
2022/02/14 04:28:15;;;;;;;10.43;4.90;;;8.30;99.90;;;;;;5071298;28;20032;-55
2022/02/14 04:30:40;;;;;;;10.15;4.13;;;8.30;99.90;;;;;;5071888;28;20029;-57
2022/02/14 04:33:06;;;;;;;8.60;4.22;;;8.30;99.90;;;;;;5070714;28;20044;-57
2022/02/14 04:35:32;;;;;;;17.25;4.50;;;8.30;99.90;;;;;;5071480;28;20025;-55
2022/02/14 04:37:59;;;;;;;11.07;4.28;;;8.30;99.90;;;;;;5071004;28;20028;-57
2022/02/14 04:40:26;;;;;;;10.48;4.32;;;8.30;99.90;;;;;;5067985;28;20028;-56
2022/02/14 04:42:52;;;;;;;10.50;4.63;;;8.20;99.90;;;;;;5073349;28;20028;-60
2022/02/14 04:45:18;;;;;;;19.77;4.95;;;8.10;99.90;;;;;;5075742;28;20025;-59
2022/02/14 04:47:43;;;;;;;13.15;4.82;;;8.10;99.90;;;;;;5076206;28;20040;-54
2022/02/14 04:50:09;;;;;;;10.82;4.50;;;8.00;99.90;;;;;;5076200;28;20401;-53
2022/02/14 04:52:35;;;;;;;9.20;4.22;;;8.10;99.90;;;;;;5072324;28;20017;-57
2022/02/14 04:55:00;;;;;;;13.45;4.68;;;8.10;99.90;;;;;;5073234;28;20040;-59
2022/02/14 04:57:26;;;;;;;14.18;4.30;;;8.00;99.90;;;;;;5072033;28;20020;-56
2022/02/14 04:59:52;;;;;;;11.65;4.57;;;8.00;99.90;;;;;;5071498;28;20562;-56
2022/02/14 05:02:17;;;;;;;16.80;4.78;;;8.00;99.90;;;;;;5070676;28;20024;-54
2022/02/14 05:04:43;;;;;;;11.35;4.20;;;7.90;99.90;;;;;;5071830;28;20029;-56
2022/02/14 05:07:08;;;;;;;11.05;4.38;;;8.10;99.90;;;;;;5070033;28;20079;-57
2022/02/14 05:09:34;;;;;;;13.38;4.63;;;8.10;99.90;;;;;;5071229;28;20390;-61
2022/02/14 05:12:00;;;;;;;15.77;4.72;;;8.20;99.90;;;;;;5052764;28;20046;-56
2022/02/14 05:14:26;;;;;;;15.63;4.75;;;8.30;99.90;;;;;;5053047;28;20070;-60
2022/02/14 05:16:51;;;;;;;19.20;5.20;;;8.20;99.90;;;;;;5070134;28;20024;-59
2022/02/14 05:19:17;;;;;;;9.50;4.82;;;8.20;99.90;;;;;;5071103;28;20120;-59
2022/02/14 05:21:43;;;;;;;17.92;4.43;;;8.10;99.90;;;;;;5070786;28;20078;-57
2022/02/14 05:24:08;;;;;;;14.73;4.65;;;8.00;99.90;;;;;;5070881;28;20035;-59
2022/02/14 05:26:34;;;;;;;11.77;5.28;;;8.00;99.90;;;;;;5069514;28;20028;-59
2022/02/14 05:29:00;;;;;;;12.82;4.45;;;8.10;99.90;;;;;;5069604;28;20024;-54
2022/02/14 05:31:29;;;;;;;13.05;4.60;;;8.10;99.90;;;;;;5062765;28;20044;-58
2022/02/14 05:33:55;;;;;;;11.00;4.97;;;8.20;99.90;;;;;;5071001;28;20115;-60
2022/02/14 05:36:22;;;;;;;12.98;5.15;;;8.20;99.90;;;;;;5068911;28;20093;-58
2022/02/14 05:38:48;;;;;;;13.93;5.28;;;8.20;99.90;;;;;;5070983;28;20036;-61
2022/02/14 05:41:14;;;;;;;19.30;5.45;;;8.20;99.90;;;;;;5070150;28;20520;-61
2022/02/14 05:43:41;;;;;;;22.15;5.30;;;8.20;99.90;;;;;;5070772;28;20044;-61
2022/02/14 05:46:13;;;;;;;17.42;4.60;;;8.20;99.90;;;;;;5069746;28;20067;-62
2022/02/14 05:48:44;;;;;;;15.82;5.20;;;8.10;99.90;;;;;;5069163;28;20360;-54
2022/02/14 05:51:10;;;;;;;12.70;4.50;;;8.20;99.90;;;;;;5055725;28;20036;-61
2022/02/14 05:53:38;;;;;;;16.90;5.35;;;8.10;99.90;;;;;;5051948;28;20380;-61
2022/02/14 05:56:05;;;;;;;14.20;4.60;;;8.00;99.90;;;;;;5061740;28;20392;-58
2022/02/14 05:58:30;;;;;;;9.70;4.43;;;8.00;99.90;;;;;;5045403;28;20118;-60
2022/02/14 06:00:56;;;;;;;11.38;4.90;;;8.00;99.90;;;;;;5050046;28;20080;-60
2022/02/14 06:03:21;;;;;;;13.10;5.10;;;8.10;99.90;;;;;;5065738;28;20456;-60
2022/02/14 06:05:47;;;;;;;9.20;4.13;;;8.10;99.90;;;;;;5071223;28;20047;-61
2022/02/14 06:08:12;;;;;;;15.30;5.25;;;8.10;99.90;;;;;;5073360;28;20040;-61
2022/02/14 06:10:38;;;;;;;10.57;3.78;;;8.10;99.90;;;;;;5074364;28;20370;-61
2022/02/14 06:13:04;;;;;;;15.88;4.85;;;8.10;99.90;;;;;;5073173;28;20032;-61
2022/02/14 06:15:29;;;;;;;15.05;5.40;;;8.20;99.90;;;;;;5073728;28;20074;-60
2022/02/14 06:17:55;;;;;;;18.65;5.43;;;8.10;99.90;;;;;;5072695;28;20075;-60
2022/02/14 06:20:20;;;;;;;16.98;6.32;;;8.10;99.90;;;;;;5073295;28;20028;-61
2022/02/14 06:22:46;;;;;;;23.42;5.97;;;8.10;99.90;;;;;;5072357;28;20036;-61
2022/02/14 06:25:12;;;;;;;13.48;4.43;;;8.10;99.90;;;;;;5072176;28;20051;-57
2022/02/14 06:27:37;;;;;;;16.17;4.63;;;8.20;99.90;;;;;;5072935;28;20350;-60
2022/02/14 06:30:05;;;;;;;13.38;5.72;;;8.30;99.90;;;;;;5073811;28;20111;-61
2022/02/14 06:32:30;;;;;;;15.50;5.03;;;8.30;99.90;;;;;;5073637;28;20035;-59
2022/02/14 06:34:57;;;;;;;12.88;3.97;;;8.40;99.90;;;;;;5073655;28;20044;-59
2022/02/14 06:37:23;;;;;;;12.43;4.47;;;8.50;99.90;;;;;;5073982;28;20025;-60
2022/02/14 06:39:49;;;;;;;11.93;4.22;;;8.60;99.90;;;;;;5073625;28;20454;-58
2022/02/14 06:42:14;;;;;;;18.95;5.38;;;8.70;99.90;;;;;;5073562;28;20095;-60
2022/02/14 06:44:40;;;;;;;13.82;4.18;;;8.70;99.90;;;;;;5073538;28;20351;-59
2022/02/14 06:47:06;;;;;;;16.92;4.22;;;8.70;99.90;;;;;;5067319;28;20063;-59
2022/02/14 06:49:31;;;;;;;15.30;4.30;;;8.70;99.90;;;;;;5069615;28;20056;-58
2022/02/14 06:51:57;;;;;;;11.40;4.03;;;8.70;99.90;;;;;;5064154;28;20396;-59
2022/02/14 06:54:23;;;;;;;12.38;4.45;;;8.70;99.90;;;;;;5063999;28;20039;-58
2022/02/14 06:56:49;;;;;;;13.93;4.50;;;8.70;99.90;;;;;;5065115;28;20020;-57
2022/02/14 06:59:14;;;;;;;11.80;4.47;;;8.60;99.90;;;;;;5070430;28;20020;-59
2022/02/14 07:01:40;;;;;;;12.95;4.45;;;8.60;99.90;;;;;;5062434;28;20110;-57
2022/02/14 07:04:06;;;;;;;8.55;4.07;;;8.60;99.90;;;;;;5070354;28;20041;-57
2022/02/14 07:06:32;;;;;;;8.65;4.03;;;8.60;99.90;;;;;;5069924;28;20021;-58
2022/02/14 07:08:57;;;;;;;15.10;4.57;;;8.70;99.90;;;;;;5071965;28;20024;-58
2022/02/14 07:11:23;;;;;;;18.17;4.45;;;8.60;99.90;;;;;;5073096;28;20366;-58
2022/02/14 07:13:49;;;;;;;15.45;4.38;;;8.60;99.90;;;;;;5071884;28;20021;-58
2022/02/14 07:16:15;;;;;;;11.93;5.18;;;8.70;99.90;;;;;;5065297;28;20183;-59
2022/02/14 07:18:40;;;;;;;11.68;4.47;;;8.70;99.90;;;;;;5070003;28;20072;-60
2022/02/14 07:21:06;;;;;;;19.30;4.68;;;8.80;99.90;;;;;;5071904;28;20123;-59
2022/02/14 07:23:32;;;;;;;9.10;3.80;;;8.70;99.90;;;;;;5071897;28;20078;-59
2022/02/14 07:25:58;;;;;;;13.73;4.60;;;8.70;99.90;;;;;;5066612;28;20039;-58
2022/02/14 07:28:23;;;;;;;10.98;4.63;;;8.70;99.90;;;;;;5054635;28;20504;-60
2022/02/14 07:30:49;;;;;;;15.27;4.38;;;8.60;99.90;;;;;;5074493;28;20033;-60
2022/02/14 07:33:15;;;;;;;11.50;4.35;;;8.70;99.90;;;;;;5091073;22;20093;-55
2022/02/14 07:35:40;;;;;;;11.65;3.97;;;8.70;99.90;;;;;;5084062;28;20099;-60
2022/02/14 07:38:06;;;;;;;11.90;4.07;;;8.70;99.90;;;;;;5075912;28;20055;-60
2022/02/14 07:40:32;;;;;;;12.65;4.13;;;8.70;99.90;;;;;;5084920;28;20024;-55
2022/02/14 07:42:58;;;;;;;16.88;4.50;;;8.70;99.90;;;;;;5079655;28;20035;-51
2022/02/14 07:45:24;;;;;;;13.20;4.13;;;8.80;99.90;;;;;;5077030;28;20031;-48
2022/02/14 07:47:50;;;;;;;11.07;4.38;;;8.90;99.90;;;;;;5088565;28;20032;-52
2022/02/14 07:50:16;;;;;;;12.60;3.92;;;9.20;99.90;;;;;;5092930;28;20024;-53
2022/02/14 07:52:42;;;;;;;12.52;4.03;;;10.00;99.90;;;;;;5087955;28;20039;-56
2022/02/14 07:55:08;;;;;;;16.05;4.22;;;9.70;99.90;;;;;;5079717;28;20413;-58
2022/02/14 07:57:34;;;;;;;13.68;3.58;;;9.50;99.90;;;;;;5077330;28;20171;-55
2022/02/14 08:00:01;;;;;;;22.70;4.75;;;9.40;99.90;;;;;;5080757;28;20116;-59
2022/02/14 08:02:27;;;;;;;14.95;4.05;;;9.40;99.90;;;;;;5076642;28;20031;-50
2022/02/14 08:04:53;;;;;;;13.55;3.58;;;9.50;99.90;;;;;;5086863;28;20035;-55
2022/02/14 08:07:19;;;;;;;12.55;3.92;;;9.60;99.90;;;;;;5084006;28;20044;-54
2022/02/14 08:09:44;;;;;;;10.23;3.42;;;9.50;99.90;;;;;;5089518;28;20028;-56
2022/02/14 08:12:11;;;;;;;13.40;3.70;;;9.40;99.90;;;;;;5079004;28;20427;-55
2022/02/14 08:14:39;;;;;;;10.38;4.32;;;9.40;99.90;;;;;;5082708;28;20059;-53
2022/02/14 08:17:06;;;;;;;9.93;3.40;;;9.50;99.90;;;;;;5080460;28;20052;-52
2022/02/14 08:19:32;;;;;;;13.75;3.90;;;9.50;99.90;;;;;;5078409;28;20032;-52
2022/02/14 08:21:58;;;;;;;15.93;4.05;;;9.50;99.90;;;;;;5080887;28;20020;-53
2022/02/14 08:24:24;;;;;;;19.27;4.50;;;9.50;99.90;;;;;;5076722;28;20046;-53
2022/02/14 08:26:49;;;;;;;10.23;3.95;;;9.50;99.90;;;;;;5081308;28;20493;-52
2022/02/14 08:29:15;;;;;;;10.63;3.47;;;9.50;99.90;;;;;;5074516;28;20024;-55
2022/02/14 08:31:41;;;;;;;11.30;3.40;;;9.60;99.90;;;;;;5083235;28;20032;-53
2022/02/14 08:34:06;;;;;;;9.63;3.78;;;9.70;99.90;;;;;;5088536;28;20066;-53
2022/02/14 08:36:32;;;;;;;8.05;3.53;;;9.70;99.90;;;;;;5083312;28;20052;-57
2022/02/14 08:38:58;;;;;;;16.80;4.85;;;9.70;99.90;;;;;;5090110;28;20043;-54
2022/02/14 08:41:24;;;;;;;12.57;3.67;;;9.70;99.90;;;;;;5077926;28;20028;-54
2022/02/14 08:43:50;;;;;;;14.55;4.30;;;9.70;99.90;;;;;;5085410;28;20076;-53
2022/02/14 08:46:19;;;;;;;13.75;3.65;;;9.70;99.90;;;;;;5085508;28;20035;-56
2022/02/14 08:48:52;;;;;;;11.82;3.60;;;9.80;99.90;;;;;;5089629;28;20338;-54
2022/02/14 08:51:18;;;;;;;11.27;3.80;;;9.80;99.90;;;;;;5079805;28;20035;-57
2022/02/14 08:53:45;;;;;;;11.30;3.38;;;9.90;99.90;;;;;;5074832;28;20040;-54
2022/02/14 08:56:11;;;;;;;14.63;4.15;;;9.90;99.90;;;;;;5082615;28;20021;-54
2022/02/14 08:58:39;;;;;;;16.42;4.00;;;9.80;99.90;;;;;;5074887;28;20055;-57
2022/02/14 09:01:05;;;;;;;16.20;4.30;;;9.80;99.90;;;;;;5079667;28;20379;-53
2022/02/14 09:03:31;;;;;;;12.15;3.55;;;9.90;99.90;;;;;;5071817;28;20028;-52
2022/02/14 09:05:57;;;;;;;12.80;3.58;;;9.90;99.90;;;;;;5079989;28;20504;-53
2022/02/14 09:08:25;;;;;;;12.77;4.20;;;10.00;99.90;;;;;;5079336;28;20078;-55
2022/02/14 09:10:51;;;;;;;14.80;4.20;;;9.90;99.90;;;;;;5072656;28;20025;-54
2022/02/14 09:13:17;;;;;;;13.80;3.85;;;10.00;99.90;;;;;;5078164;28;20024;-52
2022/02/14 09:15:43;;;;;;;14.45;3.50;;;10.10;99.90;;;;;;5084626;28;20034;-54
2022/02/14 09:18:09;;;;;;;15.70;3.33;;;10.20;99.90;;;;;;5082632;28;20370;-52
2022/02/14 09:20:36;;;;;;;13.43;3.50;;;10.30;99.90;;;;;;5081436;28;20059;-57
2022/02/14 09:23:01;;;;;;;11.45;3.50;;;10.50;99.90;;;;;;5079587;28;20039;-58
2022/02/14 09:25:27;;;;;;;20.98;4.03;;;10.60;99.90;;;;;;5086372;28;20028;-56
2022/02/14 09:27:54;;;;;;;16.38;3.60;;;10.60;99.90;;;;;;5088209;28;20036;-56
2022/02/14 09:30:20;;;;;;;12.15;4.13;;;10.60;99.90;;;;;;5085761;28;20107;-57
2022/02/14 09:32:45;;;;;;;8.20;3.50;;;10.60;99.90;;;;;;5089859;28;20433;-56
2022/02/14 09:35:11;;;;;;;9.85;3.55;;;10.60;99.90;;;;;;5082583;28;20032;-57
2022/02/14 09:37:37;;;;;;;13.73;3.42;;;10.60;99.90;;;;;;5090381;28;20107;-56
2022/02/14 09:40:05;;;;;;;11.95;3.25;;;10.70;99.90;;;;;;5082367;28;20029;-56
2022/02/14 09:42:30;;;;;;;11.68;3.22;;;10.80;99.90;;;;;;5087946;28;20036;-57
2022/02/14 09:44:57;;;;;;;12.80;4.10;;;10.90;99.90;;;;;;5083862;28;20652;-56
2022/02/14 09:47:26;;;;;;;20.40;3.92;;;11.00;99.90;;;;;;5082775;28;20036;-56
2022/02/14 09:49:54;;;;;;;15.43;3.40;;;11.20;99.90;;;;;;5083882;28;20533;-54
2022/02/14 09:52:20;;;;;;;10.77;3.13;;;11.30;99.90;;;;;;5086212;28;20024;-53
2022/02/14 09:54:46;;;;;;;8.13;2.88;;;11.50;99.90;;;;;;5085332;28;20286;-52
2022/02/14 09:57:12;;;;;;;14.80;3.80;;;11.50;99.90;;;;;;5075933;28;20036;-53
2022/02/14 09:59:37;;;;;;;10.68;3.15;;;11.50;99.90;;;;;;5087008;28;20032;-52
2022/02/14 10:02:25;;;;;;;8.93;2.90;;;11.40;99.90;;;;;;5074776;28;20090;-57
2022/02/14 10:05:18;;;;;;;8.00;2.90;;;11.20;99.90;;;;;;5085141;28;20115;-53
2022/02/14 10:07:52;;;;;;;12.05;3.53;;;11.20;99.90;;;;;;5093032;28;20020;-53
2022/02/14 10:10:24;;;;;;;11.65;3.30;;;11.20;99.90;;;;;;5083298;28;20029;-55
2022/02/14 10:12:55;;;;;;;14.57;3.28;;;11.20;99.90;;;;;;5084036;28;20029;-54
2022/02/14 10:15:21;;;;;;;10.18;3.38;;;11.40;99.90;;;;;;5082219;28;20019;-57
2022/02/14 10:17:49;;;;;;;11.50;3.30;;;11.50;99.90;;;;;;5084810;28;20527;-56
2022/02/14 10:20:20;;;;;;;12.73;3.25;;;11.60;99.90;;;;;;5085541;28;20028;-57
2022/02/14 10:22:55;;;;;;;9.23;3.10;;;11.60;99.90;;;;;;5086281;28;20032;-54
2022/02/14 10:25:33;;;;;;;7.75;2.30;;;11.70;99.90;;;;;;5073879;28;20024;-53
2022/02/14 10:28:17;;;;;;;9.13;2.58;;;11.70;99.90;;;;;;5091291;28;20055;-52
2022/02/14 10:31:05;;;;;;;11.82;3.17;;;11.90;99.90;;;;;;5083276;28;20025;-53
2022/02/14 10:33:53;;;;;;;6.25;2.78;;;12.00;99.90;;;;;;5093249;28;20495;-55
2022/02/14 10:36:33;;;;;;;9.82;3.33;;;12.10;99.90;;;;;;5081988;28;20117;-55
2022/02/14 10:39:09;;;;;;;9.32;2.85;;;12.20;99.90;;;;;;5058873;28;20024;-53
2022/02/14 10:41:35;;;;;;;10.43;3.38;;;12.20;99.90;;;;;;5082378;28;20031;-53
2022/02/14 10:44:12;;;;;;;7.38;2.78;;;12.30;99.90;;;;;;5076452;28;20436;-52
2022/02/14 10:46:39;;;;;;;11.27;3.20;;;12.50;99.90;;;;;;5084931;28;20104;-56
2022/02/14 10:49:06;;;;;;;16.85;3.50;;;12.40;99.90;;;;;;5089221;28;20077;-56
2022/02/14 10:51:32;;;;;;;8.32;3.33;;;12.30;99.90;;;;;;5081845;28;20017;-56
2022/02/14 10:53:58;;;;;;;10.02;3.03;;;12.50;99.90;;;;;;5078506;28;20032;-55
2022/02/14 10:56:24;;;;;;;11.10;3.97;;;12.50;99.90;;;;;;5089514;28;20105;-54
2022/02/14 10:59:08;;;;;;;8.13;3.28;;;12.70;99.90;;;;;;5080742;28;20444;-53
2022/02/14 11:01:34;;;;;;;9.75;3.25;;;12.70;99.90;;;;;;5073827;28;20071;-56
2022/02/14 11:04:00;;;;;;;10.68;3.10;;;12.70;99.90;;;;;;5078085;28;20544;-51
2022/02/14 11:06:26;;;;;;;11.45;3.63;;;12.70;99.90;;;;;;5078486;28;20265;-51
2022/02/14 11:08:53;;;;;;;12.82;4.03;;;12.80;99.90;;;;;;5076729;28;20148;-49
2022/02/14 11:11:20;;;;;;;12.00;3.10;;;12.90;99.90;;;;;;5079540;28;20577;-50
2022/02/14 11:13:46;;;;;;;11.68;3.05;;;12.90;99.90;;;;;;5075389;28;20115;-52
2022/02/14 11:16:14;;;;;;;10.75;2.88;;;12.90;99.90;;;;;;5080188;28;20128;-56
2022/02/14 11:18:40;;;;;;;13.20;3.20;;;12.90;99.90;;;;;;5073839;28;20035;-55
2022/02/14 11:21:07;;;;;;;7.60;2.83;;;12.90;99.90;;;;;;5084439;28;20027;-51
2022/02/14 11:23:49;;;;;;;8.27;2.90;;;12.70;99.90;;;;;;5077491;28;20032;-54
2022/02/14 11:26:36;;;;;;;9.93;3.30;;;12.60;99.90;;;;;;5077407;28;20047;-57
2022/02/14 11:29:51;;;;;;;6.55;2.75;;;12.60;99.90;;;;;;5081187;28;20085;-59
2022/02/14 11:32:27;;;;;;;9.57;3.85;;;12.60;99.90;;;;;;5077259;28;20028;-58
2022/02/14 11:35:00;;;;;;;8.85;3.33;;;12.50;99.90;;;;;;5080922;28;20029;-60
2022/02/14 11:37:50;;;;;;;11.10;2.92;;;12.40;99.90;;;;;;5079076;28;20097;-60
2022/02/14 11:40:36;;;;;;;11.10;3.35;;;12.40;99.90;;;;;;5086653;28;20043;-61
2022/02/14 11:43:05;;;;;;;10.02;4.07;;;12.40;99.90;;;;;;5083375;28;20032;-58
2022/02/14 11:45:31;;;;;;;11.82;2.90;;;12.50;99.90;;;;;;5078607;28;20025;-55
2022/02/14 11:47:57;;;;;;;7.85;3.50;;;12.60;99.90;;;;;;5085046;28;20449;-58
2022/02/14 11:50:42;;;;;;;15.50;4.72;;;12.70;99.90;;;;;;5075793;28;20032;-53
2022/02/14 11:53:33;;;;;;;13.73;4.60;;;12.90;99.90;;;;;;5079848;28;20366;-59
2022/02/14 11:56:20;;;;;;;11.02;3.20;;;13.20;99.90;;;;;;5092335;28;20024;-58
2022/02/14 11:59:08;;;;;;;9.68;2.85;;;13.10;99.90;;;;;;5092791;28;20035;-58
2022/02/14 12:01:57;;;;;;;10.93;3.00;;;13.10;99.90;;;;;;5082671;28;20170;-58
2022/02/14 12:04:41;;;;;;;6.22;2.85;;;13.40;99.90;;;;;;5086911;28;20028;-57
2022/02/14 12:07:13;;;;;;;6.70;2.80;;;13.50;99.90;;;;;;5082576;28;20028;-56
2022/02/14 12:09:57;;;;;;;9.35;3.25;;;13.30;99.90;;;;;;5075398;28;20077;-58
2022/02/14 12:12:51;;;;;;;8.00;3.03;;;13.20;99.90;;;;;;5073266;28;20036;-57
2022/02/14 12:21:18;;;;;;;7.88;2.85;;;12.80;99.90;;;;;;5079659;28;20089;-58
2022/02/14 12:23:47;;;;;;;10.48;2.63;;;12.90;99.90;;;;;;5077848;28;20123;-59
2022/02/14 12:26:15;;;;;;;4.95;2.35;;;12.80;99.90;;;;;;5091159;28;20382;-56
2022/02/14 12:28:43;;;;;;;5.75;3.10;;;12.80;99.90;;;;;;5082444;28;20031;-57
2022/02/14 12:31:10;;;;;;;10.38;4.50;;;12.70;99.90;;;;;;5083488;28;20400;-57
2022/02/14 12:33:36;;;;;;;13.63;6.70;;;12.60;99.90;;;;;;5072759;28;20032;-56
2022/02/14 12:36:05;;;;;;;5.65;3.20;;;12.60;99.90;;;;;;5079803;28;20099;-58
2022/02/14 12:38:34;;;;;;;8.35;3.13;;;12.60;99.90;;;;;;5071814;28;20025;-58
2022/02/14 12:41:01;;;;;;;6.07;2.38;;;12.50;99.90;;;;;;5083229;28;20032;-58
2022/02/14 12:43:27;;;;;;;8.95;2.97;;;12.60;99.90;;;;;;5081963;28;20093;-59
2022/02/14 12:45:58;;;;;;;7.45;2.72;;;12.60;99.90;;;;;;5074471;28;20071;-57
2022/02/14 12:48:37;;;;;;;8.82;2.88;;;12.60;99.90;;;;;;5082654;28;20035;-57
2022/02/14 12:51:06;;;;;;;7.15;2.67;;;12.60;99.90;;;;;;5071756;28;20029;-56
2022/02/14 12:53:37;;;;;;;9.75;3.00;;;12.60;99.90;;;;;;5071448;28;20020;-58
2022/02/14 12:56:19;;;;;;;7.70;2.95;;;12.50;99.90;;;;;;5053070;28;20028;-57
2022/02/14 12:58:53;;;;;;;10.80;3.07;;;12.50;99.90;;;;;;5080994;28;20048;-56